createdAt,value
2019-05-18T00:02:08.792Z,32.50
2019-05-18T00:07:38.448Z,32.50
2019-05-18T00:12:46.615Z,32.50
2019-05-18T00:17:54.593Z,32.60
2019-05-18T00:23:02.121Z,32.60
2019-05-18T00:28:10.424Z,32.70
2019-05-18T00:33:19.456Z,32.80
2019-05-18T00:38:30.357Z,32.80
2019-05-18T00:43:37.728Z,32.80
2019-05-18T00:48:45.143Z,32.80
2019-05-18T00:53:52.939Z,32.60
2019-05-18T00:59:00.562Z,32.70
2019-05-18T01:04:08.729Z,32.90
2019-05-18T01:09:16.009Z,33.10
2019-05-18T01:14:23.660Z,33.10
2019-05-18T01:19:31.126Z,33.30
2019-05-18T01:24:38.576Z,33.30
2019-05-18T01:29:46.025Z,33.30
2019-05-18T01:34:54.736Z,33.30
2019-05-18T01:40:02.797Z,33.30
2019-05-18T01:45:17.037Z,33.30
2019-05-18T01:50:21.124Z,33.50
2019-05-18T01:55:30.241Z,33.70
2019-05-18T02:00:38.139Z,33.80
2019-05-18T02:05:46.484Z,33.80
2019-05-18T02:10:54.871Z,33.90
2019-05-18T02:16:02.372Z,34.20
2019-05-18T02:21:10.241Z,34.10
2019-05-18T02:26:21.997Z,34.30
2019-05-18T02:31:28.255Z,34.40
2019-05-18T02:36:35.354Z,34.50
2019-05-18T02:41:43.837Z,34.70
2019-05-18T02:46:51.180Z,34.70
2019-05-18T02:52:00.734Z,34.90
2019-05-18T02:57:08.525Z,35.00
2019-05-18T03:02:16.853Z,35.10
2019-05-18T03:07:25.801Z,35.30
2019-05-18T03:12:34.373Z,35.40
2019-05-18T03:17:42.911Z,35.50
2019-05-18T03:22:50.971Z,35.70
2019-05-18T03:28:00.806Z,35.70
2019-05-18T03:33:10.853Z,35.70
2019-05-18T03:38:22.381Z,36.00
2019-05-18T03:43:32.914Z,36.10
2019-05-18T03:48:39.817Z,36.10
2019-05-18T03:53:52.284Z,36.30
2019-05-18T03:59:00.497Z,36.40
2019-05-18T04:04:09.002Z,36.60
2019-05-18T04:09:17.821Z,36.60
2019-05-18T04:14:26.448Z,36.70
2019-05-18T04:24:44.927Z,37.00
2019-05-18T04:29:53.606Z,37.10
2019-05-18T04:35:01.339Z,37.30
2019-05-18T04:40:11.339Z,37.30
2019-05-18T04:45:17.548Z,37.50
2019-05-18T04:50:26.406Z,37.60
2019-05-18T04:55:33.489Z,37.80
2019-05-18T05:00:42.469Z,37.90
2019-05-18T05:05:49.938Z,38.00
2019-05-18T05:10:57.647Z,38.20
2019-05-18T05:16:06.906Z,38.30
2019-05-18T05:21:16.003Z,38.40
2019-05-18T05:26:24.996Z,38.60
2019-05-18T05:31:34.817Z,38.60
2019-05-18T05:36:42.444Z,38.80
2019-05-18T05:41:51.731Z,38.90
2019-05-18T05:46:59.830Z,39.00
2019-05-18T05:52:08.628Z,39.20
2019-05-18T06:13:31.920Z,39.50
2019-05-18T06:18:42.724Z,39.50
2019-05-18T06:23:49.958Z,39.70
2019-05-18T06:29:00.945Z,39.70
2019-05-18T06:34:09.476Z,39.70
2019-05-18T06:39:17.366Z,39.60
2019-05-18T06:44:30.751Z,39.70
2019-05-18T06:49:38.211Z,39.90
2019-05-18T06:54:45.797Z,39.90
2019-05-18T06:59:53.241Z,40.10
2019-05-18T07:05:01.892Z,40.20
2019-05-18T07:10:10.663Z,40.50
2019-05-18T07:15:20.403Z,40.60
2019-05-18T07:20:34.022Z,40.70
2019-05-18T07:25:42.382Z,40.80
2019-05-18T07:30:49.831Z,40.90
2019-05-18T07:35:58.106Z,41.10
2019-05-18T07:41:05.633Z,41.20
2019-05-18T07:46:22.008Z,41.20
2019-05-18T07:51:37.233Z,41.20
2019-05-18T07:56:38.330Z,41.20
2019-05-18T08:01:45.719Z,41.30
2019-05-18T08:06:55.623Z,41.40
2019-05-18T08:12:14.917Z,41.30
2019-05-18T08:17:22.960Z,41.30
2019-05-18T08:22:30.630Z,41.40
2019-05-18T08:27:46.266Z,41.50
2019-05-18T08:32:53.691Z,41.50
2019-05-18T08:38:01.773Z,41.50
2019-05-18T08:43:12.302Z,41.70
2019-05-18T08:48:19.719Z,41.90
2019-05-18T08:53:27.679Z,41.90
2019-05-18T08:58:36.973Z,41.90
2019-05-18T09:03:44.675Z,42.00
2019-05-18T09:08:52.366Z,42.10
2019-05-18T09:14:00.283Z,42.00
2019-05-18T09:19:16.060Z,42.10
2019-05-18T09:24:24.183Z,42.10
2019-05-18T09:29:32.708Z,42.10
2019-05-18T09:34:40.554Z,42.10
2019-05-18T09:39:48.878Z,42.20
2019-05-18T09:44:56.540Z,42.10
2019-05-18T09:50:04.442Z,42.00
2019-05-18T09:55:12.078Z,42.00
2019-05-18T10:00:21.233Z,41.60
2019-05-18T10:05:37.746Z,41.60
2019-05-18T10:10:45.874Z,41.60
2019-05-18T10:15:53.732Z,41.60
2019-05-18T10:21:01.645Z,41.60
2019-05-18T10:26:09.634Z,41.50
2019-05-18T10:31:17.287Z,41.50
2019-05-18T10:36:25.338Z,41.30
2019-05-18T10:41:32.976Z,41.20
2019-05-18T10:46:40.240Z,41.10
2019-05-18T10:51:48.063Z,41.00
2019-05-18T10:56:55.754Z,41.00
2019-05-18T11:02:03.358Z,40.80
2019-05-18T11:07:18.829Z,40.70
2019-05-18T11:12:27.818Z,40.60
2019-05-18T11:17:36.725Z,40.30
2019-05-18T11:22:44.857Z,40.30
2019-05-18T11:27:53.051Z,40.10
2019-05-18T11:33:01.409Z,40.00
2019-05-18T11:38:08.699Z,39.90
2019-05-18T11:43:15.975Z,39.80
2019-05-18T11:48:23.081Z,39.70
2019-05-18T11:53:30.940Z,39.60
2019-05-18T11:58:38.496Z,39.50
2019-05-18T12:03:45.748Z,39.40
2019-05-18T12:08:53.668Z,39.30
2019-05-18T12:14:01.644Z,39.20
2019-05-18T12:19:09.129Z,39.10
2019-05-18T12:24:16.776Z,39.00
2019-05-18T12:29:24.241Z,38.90
2019-05-18T12:34:31.722Z,38.80
2019-05-18T12:39:39.803Z,38.70
2019-05-18T12:44:47.358Z,38.60
2019-05-18T12:49:55.266Z,38.50
2019-05-18T12:55:02.608Z,38.40
2019-05-18T13:00:12.508Z,38.40
2019-05-18T13:05:20.025Z,38.30
2019-05-18T13:10:28.498Z,38.20
2019-05-18T13:15:35.835Z,38.10
2019-05-18T13:20:43.654Z,38.10
2019-05-18T13:25:51.054Z,38.00
2019-05-18T13:30:59.050Z,37.90
2019-05-18T13:36:07.533Z,37.80
2019-05-18T13:41:15.973Z,37.70
2019-05-18T13:46:23.652Z,37.70
2019-05-18T13:51:31.329Z,37.60
2019-05-18T13:56:39.967Z,37.60
2019-05-18T14:01:47.412Z,37.50
2019-05-18T14:07:07.095Z,37.40
2019-05-18T14:12:14.343Z,37.30
2019-05-18T14:17:22.457Z,37.30
2019-05-18T14:22:29.835Z,37.20
2019-05-18T14:27:37.826Z,37.10
2019-05-18T14:32:46.310Z,37.10
2019-05-18T14:37:53.967Z,37.00
2019-05-18T14:43:02.043Z,36.90
2019-05-18T14:48:10.226Z,36.80
2019-05-18T14:53:17.589Z,36.80
2019-05-18T14:58:25.280Z,36.70
2019-05-18T15:03:33.262Z,36.70
2019-05-18T15:08:41.269Z,36.60
2019-05-18T15:13:49.653Z,36.50
2019-05-18T15:18:57.000Z,36.40
2019-05-18T15:24:04.684Z,36.40
2019-05-18T15:29:12.598Z,36.30
2019-05-18T15:34:20.482Z,36.20
2019-05-18T15:39:28.277Z,36.20
2019-05-18T15:44:36.110Z,36.20
2019-05-18T15:49:44.533Z,36.10
2019-05-18T15:54:52.385Z,36.10
2019-05-18T16:00:00.043Z,36.00
2019-05-18T16:05:44.117Z,36.00
2019-05-18T16:10:51.802Z,35.90
2019-05-18T16:15:59.078Z,35.80
2019-05-18T16:21:06.253Z,35.80
2019-05-18T16:26:21.290Z,35.70
2019-05-18T16:31:23.183Z,35.70
2019-05-18T16:36:30.744Z,35.70
2019-05-18T16:41:39.139Z,35.70
2019-05-18T16:46:46.961Z,35.60
2019-05-18T16:51:54.348Z,35.60
2019-05-18T16:57:03.598Z,35.50
2019-05-18T17:02:11.468Z,35.50
2019-05-18T17:07:18.923Z,35.40
2019-05-18T17:12:29.981Z,35.40
2019-05-18T17:17:36.693Z,35.30
2019-05-18T17:22:43.971Z,35.30
2019-05-18T17:27:51.320Z,35.30
2019-05-18T17:32:58.626Z,35.30
2019-05-18T17:38:05.981Z,35.30
2019-05-18T17:43:13.795Z,35.30
2019-05-18T17:48:21.293Z,35.20
2019-05-18T17:53:28.462Z,35.20
2019-05-18T17:58:35.696Z,35.20
2019-05-18T18:03:43.157Z,35.10
2019-05-18T18:08:50.587Z,35.10
2019-05-18T18:13:57.936Z,35.10
2019-05-18T18:19:05.870Z,35.00
2019-05-18T18:24:13.859Z,35.00
2019-05-18T18:29:22.316Z,34.90
2019-05-18T18:34:30.312Z,34.90
2019-05-18T18:39:37.743Z,34.90
2019-05-18T18:44:45.128Z,34.90
2019-05-18T18:49:52.826Z,34.80
2019-05-18T18:55:01.326Z,34.80
2019-05-18T19:00:11.743Z,34.70
2019-05-18T19:05:39.103Z,34.70
2019-05-18T19:10:48.635Z,34.70
2019-05-18T19:15:55.945Z,34.60
2019-05-18T19:21:03.562Z,34.50
2019-05-18T19:26:11.396Z,34.60
2019-05-18T19:31:19.253Z,34.40
2019-05-18T19:36:27.087Z,34.50
2019-05-18T19:41:35.143Z,34.40
2019-05-18T19:46:43.039Z,34.30
2019-05-18T19:51:50.902Z,34.20
2019-05-18T19:56:58.280Z,34.10
2019-05-18T20:02:06.307Z,34.10
2019-05-18T20:07:13.983Z,34.30
2019-05-18T20:12:21.147Z,34.10
2019-05-18T20:17:29.255Z,34.30
2019-05-18T20:22:37.498Z,34.30
2019-05-18T20:27:45.358Z,34.20
2019-05-18T20:32:53.301Z,34.20
2019-05-18T20:38:01.643Z,34.10
2019-05-18T20:43:09.772Z,34.00
2019-05-18T20:48:17.371Z,34.10
2019-05-18T20:53:25.127Z,34.10
2019-05-18T20:58:40.091Z,34.00
2019-05-18T21:03:42.549Z,34.00
2019-05-18T21:08:51.292Z,33.90
2019-05-18T21:13:58.633Z,33.90
2019-05-18T21:19:06.493Z,33.90
2019-05-18T21:24:14.945Z,33.90
2019-05-18T21:29:23.638Z,33.90
2019-05-18T21:34:31.231Z,33.80
2019-05-18T21:39:40.014Z,33.80
2019-05-18T21:44:50.321Z,33.80
2019-05-18T21:49:58.744Z,33.70
2019-05-18T21:55:09.311Z,33.70
2019-05-18T22:00:17.003Z,33.70
2019-05-18T22:05:25.740Z,33.60
2019-05-18T22:10:33.806Z,33.60
2019-05-18T22:15:41.517Z,33.60
2019-05-18T22:20:49.438Z,33.50
2019-05-18T22:25:57.476Z,33.50
2019-05-18T22:31:05.590Z,33.50
2019-05-18T22:36:13.480Z,33.40
2019-05-18T22:41:22.175Z,33.40
2019-05-18T22:46:30.168Z,33.30
2019-05-18T22:51:37.963Z,33.30
2019-05-18T22:56:51.249Z,33.30
2019-05-18T23:02:01.779Z,33.30
2019-05-18T23:07:40.823Z,33.30
2019-05-18T23:23:27.923Z,32.30
2019-05-18T23:28:40.061Z,32.10
2019-05-18T23:33:56.723Z,32.70
2019-05-18T23:39:20.677Z,33.00
2019-05-18T23:44:34.115Z,33.20
2019-05-18T23:49:43.752Z,33.30
2019-05-18T23:54:54.618Z,33.40
